Time;durP1;ratioP1;P1;durP2;ratioP2;P2;SDS_P1;SDS_P2;PMS_P1;PMS_P2;Temp;Humidity;BMP_temperature;BMP_pressure;BME280_temperature;BME280_humidity;BME280_pressure;Samples;Min_cycle;Max_cycle;Signal;HPM_P1;HPM_P2
2023/07/14 00:01:55;;;;;;;5.22;2.92;;;;;;;14.28;100.00;101103.25;5020305;28;20041;-83
2023/07/14 00:04:32;;;;;;;9.57;3.83;;;;;;;14.31;100.00;101100.53;5010325;28;20058;-80
2023/07/14 00:06:59;;;;;;;3.33;3.13;;;;;;;14.26;100.00;101094.47;5015978;28;20140;-81
2023/07/14 00:09:30;;;;;;;3.90;3.50;;;;;;;14.20;100.00;101100.72;5029639;28;20042;-80
2023/07/14 00:11:57;;;;;;;4.63;3.20;;;;;;;14.18;100.00;101104.28;5036458;28;20049;-82
2023/07/14 00:14:23;;;;;;;3.63;3.00;;;;;;;14.16;100.00;101101.69;5039235;28;20093;-82
2023/07/14 00:16:50;;;;;;;2.80;2.60;;;;;;;14.15;100.00;101107.84;5036340;28;20033;-83
2023/07/14 00:19:19;;;;;;;3.83;3.25;;;;;;;14.11;100.00;101100.88;5033692;28;20054;-80
2023/07/14 00:21:47;;;;;;;3.90;3.60;;;;;;;14.13;100.00;101103.50;5038603;28;20045;-82
2023/07/14 00:24:18;;;;;;;5.03;4.13;;;;;;;14.13;100.00;101103.50;5052953;28;20045;-82
2023/07/14 00:26:55;;;;;;;5.65;3.60;;;;;;;14.09;100.00;101097.41;5042262;28;20094;-80
2023/07/14 00:29:22;;;;;;;6.53;3.78;;;;;;;14.07;100.00;101096.56;5019526;28;20046;-79
2023/07/14 00:31:48;;;;;;;4.35;3.95;;;;;;;14.05;100.00;101101.88;5039628;28;20037;-79
2023/07/14 00:34:15;;;;;;;5.97;3.67;;;;;;;14.06;100.00;101105.34;5042451;28;20037;-81
2023/07/14 00:36:41;;;;;;;4.80;3.42;;;;;;;14.04;100.00;101099.22;5042360;28;20052;-80
2023/07/14 00:39:07;;;;;;;7.15;4.28;;;;;;;14.02;100.00;101101.03;5018339;28;20494;-80
2023/07/14 00:41:34;;;;;;;3.83;3.45;;;;;;;14.02;100.00;101108.94;5031461;28;20092;-81
2023/07/14 00:44:01;;;;;;;6.18;3.47;;;;;;;14.00;100.00;101103.69;5019255;28;20034;-79
2023/07/14 00:46:31;;;;;;;4.15;3.55;;;;;;;14.01;100.00;101100.16;5033220;28;20486;-80
2023/07/14 00:49:06;;;;;;;4.63;3.75;;;;;;;13.97;100.00;101101.09;5030921;28;20045;-81
2023/07/14 00:51:36;;;;;;;4.65;3.47;;;;;;;13.94;100.00;101090.63;5033595;28;20037;-80
2023/07/14 00:54:03;;;;;;;8.38;4.43;;;;;;;13.88;100.00;101096.88;5028823;28;20045;-80
2023/07/14 00:56:45;;;;;;;4.53;4.13;;;;;;;13.82;100.00;101096.97;5019462;28;20045;-79
2023/07/14 00:59:15;;;;;;;4.80;3.63;;;;;;;13.81;100.00;101097.00;5034515;28;20465;-80
2023/07/14 01:02:20;;;;;;;4.45;4.15;;;;;;;13.78;100.00;101091.75;5005550;28;20041;-80
2023/07/14 01:05:01;;;;;;;3.65;3.25;;;;;;;13.78;100.00;101086.50;5031935;28;20044;-80
2023/07/14 01:07:39;;;;;;;3.83;3.53;;;;;;;13.77;100.00;101090.03;5027679;28;20034;-80
2023/07/14 01:10:11;;;;;;;3.58;3.38;;;;;;;13.75;100.00;101084.78;5028115;28;20049;-80
2023/07/14 01:12:42;;;;;;;6.20;4.05;;;;;;;13.74;100.00;101085.69;5031091;28;20037;-80
2023/07/14 01:15:09;;;;;;;4.22;3.83;;;;;;;13.72;100.00;101082.19;5036744;28;20033;-82
2023/07/14 01:17:37;;;;;;;4.20;3.80;;;;;;;13.71;100.00;101076.09;5030072;28;20045;-81
2023/07/14 01:20:08;;;;;;;3.90;3.60;;;;;;;13.70;100.00;101074.34;5029881;28;20033;-80
2023/07/14 01:22:47;;;;;;;5.07;3.92;;;;;;;13.67;100.00;101071.72;5023830;28;20049;-80
2023/07/14 01:26:15;;;;;;;4.10;3.70;;;;;;;13.65;100.00;101070.91;5027688;28;20127;-79
2023/07/14 01:28:42;;;;;;;5.18;4.45;;;;;;;13.63;100.00;101075.31;4960582;28;20442;-81
2023/07/14 01:31:24;;;;;;;10.23;4.25;;;;;;;13.62;100.00;101084.09;5024418;28;20033;-82
2023/07/14 01:33:52;;;;;;;4.38;4.07;;;;;;;13.59;100.00;101076.25;5023079;28;20049;-81
2023/07/14 01:36:23;;;;;;;5.25;4.47;;;;;;;13.58;100.00;101071.88;5018477;28;20069;-81
2023/07/14 01:38:50;;;;;;;5.10;3.92;;;;;;;13.56;100.00;101082.44;5017104;28;20123;-81
2023/07/14 01:41:17;;;;;;;3.47;3.17;;;;;;;13.56;100.00;101076.31;5015121;28;20544;-82
2023/07/14 01:43:44;;;;;;;6.43;4.13;;;;;;;13.53;100.00;101079.84;5021195;28;20037;-82
2023/07/14 01:46:20;;;;;;;4.82;4.43;;;;;;;13.50;100.00;101079.88;5018668;28;20516;-82
2023/07/14 01:49:09;;;;;;;6.25;4.68;;;;;;;13.51;100.00;101076.38;5017864;28;20124;-83
2023/07/14 01:51:42;;;;;;;4.90;4.07;;;;;;;13.51;100.00;101083.41;5020867;28;20041;-83
2023/07/14 01:54:34;;;;;;;4.07;3.58;;;;;;;13.46;100.00;101083.44;5036174;28;20075;-80
2023/07/14 01:57:09;;;;;;;3.80;3.40;;;;;;;13.46;100.00;101079.97;5011382;28;20099;-80
2023/07/14 01:59:40;;;;;;;3.58;3.08;;;;;;;13.43;100.00;101078.25;5004345;28;20041;-79
2023/07/14 02:02:18;;;;;;;5.18;4.25;;;;;;;13.41;100.00;101077.38;5021719;28;20041;-81
2023/07/14 02:04:46;;;;;;;5.20;4.20;;;;;;;13.40;100.00;101080.91;5033391;28;20041;-80
2023/07/14 02:07:15;;;;;;;5.47;4.50;;;;;;;13.38;100.00;101074.81;5030926;28;20495;-81
2023/07/14 02:09:43;;;;;;;4.38;4.00;;;;;;;13.35;100.00;101078.31;5028290;28;20064;-79
2023/07/14 02:12:29;;;;;;;4.55;4.03;;;;;;;13.37;100.00;101078.31;5030172;28;20034;-80
2023/07/14 02:15:03;;;;;;;8.32;4.40;;;;;;;13.37;100.00;101079.19;5033902;28;20380;-80
2023/07/14 02:17:37;;;;;;;5.20;4.80;;;;;;;13.38;100.00;101077.44;5038390;28;20614;-79
2023/07/14 02:20:10;;;;;;;4.78;4.38;;;;;;;13.34;100.00;101081.81;5030704;28;20033;-80
2023/07/14 02:22:38;;;;;;;5.20;4.18;;;;;;;13.29;100.00;101081.00;5040157;28;20095;-80
2023/07/14 02:25:07;;;;;;;6.43;4.85;;;;;;;13.24;100.00;101078.47;5026963;28;20037;-81
2023/07/14 02:27:34;;;;;;;6.70;4.78;;;;;;;13.22;100.00;101082.00;5031702;28;20045;-80
2023/07/14 02:30:03;;;;;;;5.88;4.35;;;;;;;13.24;100.00;101090.72;5031754;28;20037;-79
2023/07/14 02:32:36;;;;;;;7.00;4.95;;;;;;;13.19;100.00;101085.53;5024784;28;20041;-81
2023/07/14 02:35:16;;;;;;;5.88;4.38;;;;;;;13.14;100.00;101090.00;5014579;28;20361;-80
2023/07/14 02:38:04;;;;;;;7.97;4.88;;;;;;;13.12;100.00;101089.13;5013048;28;20058;-81
2023/07/14 02:40:39;;;;;;;4.57;4.28;;;;;;;13.12;100.00;101083.00;5031769;28;20052;-80
2023/07/14 02:43:14;;;;;;;5.85;5.35;;;;;;;13.13;100.00;101090.88;5018528;28;20095;-83
2023/07/14 02:45:57;;;;;;;5.72;4.90;;;;;;;13.14;100.00;101086.47;5023845;28;20044;-81
2023/07/14 02:48:47;;;;;;;4.93;4.43;;;;;;;13.15;100.00;101082.97;5018970;28;20041;-79
2023/07/14 02:51:13;;;;;;;5.22;4.78;;;;;;;13.14;100.00;101076.84;5029005;28;20038;-79
2023/07/14 02:53:40;;;;;;;9.07;5.75;;;;;;;13.15;100.00;101083.81;5023297;28;20680;-80
2023/07/14 02:56:07;;;;;;;9.35;6.32;;;;;;;13.16;100.00;101082.06;5018112;28;20048;-80
2023/07/14 02:58:35;;;;;;;4.88;4.25;;;;;;;13.14;100.00;101081.22;5038069;28;20767;-80
2023/07/14 03:01:03;;;;;;;5.65;4.53;;;;;;;13.11;100.00;101078.63;5030696;28;20121;-80
2023/07/14 03:03:30;;;;;;;5.80;4.85;;;;;;;13.11;100.00;101087.38;5007773;28;20045;-81
2023/07/14 03:05:57;;;;;;;9.90;6.32;;;;;;;13.10;100.00;101082.16;5029517;28;20053;-80
2023/07/14 03:08:23;;;;;;;8.73;5.07;;;;;;;13.06;100.00;101076.94;5030551;28;20052;-82
2023/07/14 03:10:58;;;;;;;7.75;6.03;;;;;;;13.06;100.00;101083.94;5030356;28;20049;-80
2023/07/14 03:13:25;;;;;;;9.13;5.65;;;;;;;13.03;100.00;101076.97;5018367;28;20372;-80
2023/07/14 03:15:52;;;;;;;6.53;5.93;;;;;;;13.01;100.00;101070.88;5031980;28;20040;-80
2023/07/14 03:18:19;;;;;;;9.98;6.40;;;;;;;12.98;100.00;101068.25;5030128;28;20069;-81
2023/07/14 03:20:47;;;;;;;7.18;5.50;;;;;;;12.96;100.00;101071.78;5013756;28;20042;-80
2023/07/14 03:23:13;;;;;;;9.13;6.35;;;;;;;12.98;100.00;101075.28;5027195;28;20124;-80
2023/07/14 03:25:41;;;;;;;9.02;6.63;;;;;;;12.96;100.00;101080.56;5034674;28;20467;-80
2023/07/14 03:28:07;;;;;;;8.73;6.25;;;;;;;12.99;100.00;101074.41;5038782;28;20041;-79
2023/07/14 03:30:40;;;;;;;7.80;6.03;;;;;;;12.97;100.00;101077.06;5019541;28;20080;-80
2023/07/14 03:33:07;;;;;;;9.98;5.85;;;;;;;13.00;100.00;101077.00;5010779;28;20050;-79
2023/07/14 03:35:34;;;;;;;8.25;6.28;;;;;;;12.99;100.00;101071.78;5033036;28;20033;-80
2023/07/14 03:38:01;;;;;;;7.63;6.07;;;;;;;12.98;100.00;101076.13;5030105;28;20046;-80
2023/07/14 03:40:27;;;;;;;8.75;5.85;;;;;;;12.99;100.00;101075.25;5011908;28;20132;-80
2023/07/14 03:42:54;;;;;;;7.15;6.43;;;;;;;12.97;100.00;101073.53;5038492;28;20104;-80
2023/07/14 03:45:20;;;;;;;9.23;5.88;;;;;;;12.94;100.00;101078.84;5017439;28;20049;-81
2023/07/14 03:47:47;;;;;;;7.40;6.55;;;;;;;12.90;100.00;101070.97;5044314;28;20054;-80
2023/07/14 03:50:13;;;;;;;6.97;6.20;;;;;;;12.93;100.00;101074.47;5026610;28;20036;-80
2023/07/14 03:52:41;;;;;;;7.35;5.75;;;;;;;12.93;100.00;101072.69;5037614;28;20052;-80
2023/07/14 03:55:10;;;;;;;6.97;6.35;;;;;;;12.97;100.00;101070.91;5016757;28;20063;-80
2023/07/14 03:57:37;;;;;;;6.82;5.95;;;;;;;13.01;100.00;101068.25;5027962;28;20069;-81
2023/07/14 04:00:12;;;;;;;8.40;5.65;;;;;;;13.02;100.00;101071.72;5022009;28;20029;-82
2023/07/14 04:02:40;;;;;;;9.85;6.38;;;;;;;13.05;100.00;101069.94;5014500;28;20038;-81
2023/07/14 04:05:08;;;;;;;8.70;5.85;;;;;;;13.07;100.00;101064.66;5027408;28;20103;-80
2023/07/14 04:07:36;;;;;;;5.25;4.75;;;;;;;13.13;100.00;101067.22;5035508;28;20047;-80
2023/07/14 04:10:04;;;;;;;7.80;5.25;;;;;;;13.17;100.00;101065.41;5035197;28;20041;-82
2023/07/14 04:12:32;;;;;;;12.48;6.13;;;;;;;13.24;100.00;101070.59;5034144;28;20066;-81
2023/07/14 04:14:59;;;;;;;7.97;6.80;;;;;;;13.27;100.00;101076.66;5033993;28;20653;-80
2023/07/14 04:17:28;;;;;;;14.18;6.72;;;;;;;13.30;100.00;101071.38;5036696;28;20095;-83
2023/07/14 04:19:54;;;;;;;11.90;7.07;;;;;;;13.33;100.00;101069.56;5015339;28;20396;-79
2023/07/14 04:22:21;;;;;;;8.20;6.28;;;;;;;13.36;100.00;101072.19;5025832;28;20048;-80
2023/07/14 04:24:48;;;;;;;12.68;6.22;;;;;;;13.39;100.00;101074.78;5034167;28;20056;-82
2023/07/14 04:27:15;;;;;;;6.53;5.72;;;;;;;13.44;100.00;101073.84;5015245;28;20153;-81
2023/07/14 04:29:42;;;;;;;8.15;5.95;;;;;;;13.47;100.00;101068.56;5027013;28;20866;-81
2023/07/14 04:32:09;;;;;;;7.65;5.93;;;;;;;13.51;100.00;101071.09;5011619;28;20114;-83
2023/07/14 04:34:36;;;;;;;6.78;5.88;;;;;;;13.56;100.00;101073.69;5026686;28;20334;-83
2023/07/14 04:37:04;;;;;;;8.02;6.53;;;;;;;13.61;100.00;101070.97;5026234;28;20053;-81
2023/07/14 04:39:31;;;;;;;9.23;5.63;;;;;;;13.66;100.00;101077.91;5030243;28;20043;-81
2023/07/14 04:41:57;;;;;;;6.18;5.32;;;;;;;13.74;100.00;101080.44;5030875;28;20057;-80
2023/07/14 04:44:24;;;;;;;10.55;5.97;;;;;;;13.85;100.00;101081.13;5032778;28;20128;-83
2023/07/14 04:46:51;;;;;;;7.15;5.20;;;;;;;13.94;100.00;101081.88;5031862;28;20804;-81
2023/07/14 04:49:18;;;;;;;8.75;6.68;;;;;;;14.01;100.00;101081.72;5015923;28;20068;-85
2023/07/14 04:51:44;;;;;;;8.23;5.90;;;;;;;14.08;100.00;101082.53;5034334;28;20072;-81
2023/07/14 04:54:11;;;;;;;7.70;5.65;;;;;;;14.15;100.00;101075.38;5035497;28;20128;-81
2023/07/14 04:56:40;;;;;;;9.55;5.60;;;;;;;14.21;100.00;101085.81;5041722;28;20481;-81
2023/07/14 04:59:08;;;;;;;7.18;5.07;;;;;;;14.29;100.00;101075.13;5031211;28;20103;-81
2023/07/14 05:01:35;;;;;;;6.68;5.93;;;;;;;14.35;100.00;101075.91;5023695;28;20037;-84
2023/07/14 05:04:01;;;;;;;5.10;4.53;;;;;;;14.44;100.00;101068.72;5030258;28;20038;-81
2023/07/14 05:06:28;;;;;;;7.68;5.47;;;;;;;14.52;100.00;101069.44;5028365;28;20240;-81
2023/07/14 05:08:55;;;;;;;12.80;7.13;;;;;;;14.60;100.00;101071.94;5020568;28;20053;-82
2023/07/14 05:11:21;;;;;;;10.60;5.95;;;;;;;14.70;100.00;101074.38;5033440;28;20050;-83
2023/07/14 05:13:54;;;;;;;7.05;5.03;;;;;;;14.81;100.00;101070.69;5030733;28;20120;-82
2023/07/14 05:16:21;;;;;;;6.78;4.28;;;;;;;14.95;100.00;101079.19;5026878;28;20050;-81
2023/07/14 05:18:48;;;;;;;10.68;5.05;;;;;;;15.12;100.00;101078.84;5029398;28;20083;-83
2023/07/14 05:21:15;;;;;;;6.65;4.35;;;;;;;15.33;100.00;101072.25;5026431;28;20046;-82
2023/07/14 05:23:42;;;;;;;7.43;3.60;;;;;;;15.55;100.00;101074.38;5018200;28;20038;-82
2023/07/14 05:26:08;;;;;;;6.15;3.92;;;;;;;15.77;100.00;101071.25;5019264;28;20034;-84
2023/07/14 05:28:35;;;;;;;6.63;3.30;;;;;;;15.97;99.98;101081.34;5016230;28;20102;-83
2023/07/14 05:31:05;;;;;;;5.03;3.70;;;;;;;16.14;98.60;101076.53;5025017;28;20107;-80
2023/07/14 05:33:32;;;;;;;10.77;5.60;;;;;;;16.30;97.16;101081.44;5015193;28;20149;-85
2023/07/14 05:35:59;;;;;;;11.00;4.00;;;;;;;16.42;96.76;101074.94;5024950;28;20539;-83
2023/07/14 05:38:29;;;;;;;5.35;3.63;;;;;;;16.53;96.26;101076.38;5016999;28;20148;-82
2023/07/14 05:40:56;;;;;;;4.30;3.13;;;;;;;16.58;94.90;101070.97;5025814;28;20033;-81
2023/07/14 05:43:27;;;;;;;3.05;2.50;;;;;;;16.74;95.36;101071.44;5006482;28;20037;-84
2023/07/14 05:45:54;;;;;;;6.25;3.50;;;;;;;16.83;94.08;101068.53;5019190;28;20041;-81
2023/07/14 05:48:20;;;;;;;7.40;3.17;;;;;;;16.98;93.74;101069.88;5022546;28;20055;-83
2023/07/14 05:50:47;;;;;;;9.45;3.35;;;;;;;17.11;93.18;101070.38;5028297;28;20033;-84
2023/07/14 05:53:17;;;;;;;4.55;2.90;;;;;;;17.13;92.58;101067.69;5030748;28;20045;-83
2023/07/14 05:55:43;;;;;;;12.63;3.35;;;;;;;17.19;91.48;101063.13;5019541;28;20446;-81
2023/07/14 05:58:11;;;;;;;11.82;4.53;;;;;;;17.29;91.43;101065.47;5029396;28;20037;-82
2023/07/14 06:00:39;;;;;;;4.00;3.33;;;;;;;17.43;91.09;101060.63;5021255;28;20045;-83
2023/07/14 06:03:09;;;;;;;5.35;3.25;;;;;;;17.60;90.53;101069.78;5033852;28;20029;-82
2023/07/14 06:05:36;;;;;;;5.93;3.22;;;;;;;17.77;89.74;101061.31;5028553;28;20786;-82
2023/07/14 06:08:03;;;;;;;5.65;3.72;;;;;;;17.93;88.81;101061.72;5038502;28;20037;-81
2023/07/14 06:10:29;;;;;;;9.32;2.95;;;;;;;18.00;88.71;101057.94;5020274;28;20653;-81
2023/07/14 06:12:56;;;;;;;5.38;3.22;;;;;;;18.07;88.28;101061.25;5032547;28;20187;-80
2023/07/14 06:15:23;;;;;;;7.45;2.88;;;;;;;18.12;87.63;101057.53;5031559;28;20667;-81
2023/07/14 06:17:50;;;;;;;8.85;3.67;;;;;;;18.16;87.47;101051.22;5025101;28;20072;-79
2023/07/14 06:20:16;;;;;;;6.47;3.13;;;;;;;18.22;86.84;101051.94;5035121;28;20041;-80
2023/07/14 06:22:44;;;;;;;3.47;3.05;;;;;;;18.27;86.25;101044.69;5034564;28;20033;-80
2023/07/14 06:25:12;;;;;;;3.47;3.05;;;;;;;18.28;86.44;101051.72;5035302;28;20033;-79
2023/07/14 06:27:39;;;;;;;2.70;2.50;;;;;;;18.35;86.34;101046.16;5027192;28;20034;-81
2023/07/14 06:30:07;;;;;;;5.38;3.17;;;;;;;18.47;86.15;101049.25;5036169;28;20033;-82
2023/07/14 06:32:33;;;;;;;13.40;3.15;;;;;;;18.58;85.36;101038.28;5022325;28;20099;-80
2023/07/14 06:35:00;;;;;;;9.48;3.55;;;;;;;18.62;84.41;101047.88;5029567;28;20033;-79
2023/07/14 06:37:26;;;;;;;3.28;2.63;;;;;;;18.58;83.90;101043.59;5034144;28;20160;-80
2023/07/14 06:39:54;;;;;;;6.32;3.50;;;;;;;18.60;84.46;101041.75;5013506;28;20045;-80
2023/07/14 06:42:21;;;;;;;4.60;3.00;;;;;;;18.60;84.30;101042.59;5028591;28;20065;-83
2023/07/14 06:44:47;;;;;;;5.78;3.38;;;;;;;18.47;84.09;101039.53;5033429;28;20069;-79
2023/07/14 06:47:15;;;;;;;6.57;3.47;;;;;;;18.29;84.45;101042.81;5035069;28;20041;-80
2023/07/14 06:49:42;;;;;;;7.10;3.95;;;;;;;18.11;84.27;101042.56;5018359;28;20125;-80
2023/07/14 06:52:09;;;;;;;4.97;3.50;;;;;;;18.10;84.93;101039.97;5022073;28;20092;-82
2023/07/14 06:54:35;;;;;;;4.93;3.00;;;;;;;18.08;85.22;101044.44;5029528;28;20056;-81
2023/07/14 06:57:04;;;;;;;4.88;3.10;;;;;;;18.05;85.85;101037.47;5023587;28;20066;-84
2023/07/14 06:59:31;;;;;;;8.25;3.70;;;;;;;18.12;85.33;101040.75;5029532;28;20045;-79
2023/07/14 07:01:57;;;;;;;3.60;3.10;;;;;;;18.07;85.36;101035.63;5029654;28;20148;-82
2023/07/14 07:04:24;;;;;;;7.05;3.25;;;;;;;18.09;85.37;101044.38;5023860;28;20112;-83
2023/07/14 07:06:52;;;;;;;8.02;4.43;;;;;;;18.15;85.12;101041.53;5031643;28;20495;-80
2023/07/14 07:09:19;;;;;;;2.95;2.30;;;;;;;18.20;85.00;101036.09;5025303;28;20041;-81
2023/07/14 07:11:46;;;;;;;2.80;2.60;;;;;;;18.29;84.92;101043.72;5030771;28;20037;-80
2023/07/14 07:14:12;;;;;;;5.30;3.17;;;;;;;18.42;84.76;101046.78;5043427;28;20040;-81
2023/07/14 07:16:39;;;;;;;5.07;3.17;;;;;;;18.55;83.91;101038.38;5014013;28;20042;-80
2023/07/14 07:19:05;;;;;;;7.03;3.42;;;;;;;18.68;83.10;101035.25;5034916;28;20108;-80
2023/07/14 07:21:32;;;;;;;5.57;2.83;;;;;;;18.82;82.72;101042.66;5019482;28;20120;-79
2023/07/14 07:23:58;;;;;;;6.68;3.85;;;;;;;19.02;82.11;101049.06;5034079;28;20131;-82
2023/07/14 07:26:26;;;;;;;3.45;2.92;;;;;;;19.29;80.76;101047.13;5018034;28;20048;-81
2023/07/14 07:28:53;;;;;;;5.45;3.03;;;;;;;19.71;79.22;101041.94;5034388;28;20053;-79
2023/07/14 07:31:21;;;;;;;3.90;3.60;;;;;;;20.23;77.30;101041.56;5017663;28;20477;-81
2023/07/14 07:33:48;;;;;;;4.63;2.63;;;;;;;20.70;75.27;101032.47;5035401;28;20060;-81
2023/07/14 07:36:16;;;;;;;4.50;2.60;;;;;;;21.41;72.95;101034.50;5034229;28;20068;-80
2023/07/14 07:38:51;;;;;;;3.58;2.10;;;;;;;22.05;68.52;101022.44;5019453;28;20392;-81
2023/07/14 07:41:23;;;;;;;3.78;2.75;;;;;;;22.40;68.30;101027.78;5034661;28;20045;-79
2023/07/14 07:43:51;;;;;;;3.97;3.25;;;;;;;22.57;68.89;101023.34;5033119;28;20044;-81
2023/07/14 07:46:19;;;;;;;6.88;3.13;;;;;;;23.06;66.64;101019.81;5033989;28;20063;-79
2023/07/14 07:48:45;;;;;;;3.90;2.45;;;;;;;23.76;66.21;101022.94;5042788;28;20069;-80
2023/07/14 07:51:12;;;;;;;4.70;2.85;;;;;;;24.23;63.23;101021.09;5034373;28;20053;-81
2023/07/14 07:53:39;;;;;;;4.00;2.60;;;;;;;24.56;62.00;101008.41;5017570;28;20045;-79
2023/07/14 07:56:06;;;;;;;54.00;14.55;;;;;;;24.75;57.91;101006.34;5034313;28;20132;-80
2023/07/14 07:58:32;;;;;;;4.22;2.67;;;;;;;24.96;57.64;100997.91;5013427;28;20068;-83
2023/07/14 08:01:02;;;;;;;5.85;3.17;;;;;;;25.30;54.97;101010.94;5033913;28;20048;-81
2023/07/14 08:03:30;;;;;;;2.75;2.55;;;;;;;25.56;54.89;101001.19;5033043;28;20033;-81
2023/07/14 08:06:02;;;;;;;5.55;2.95;;;;;;;25.64;52.44;101004.22;5037979;28;20118;-81
2023/07/14 08:08:30;;;;;;;1.83;1.73;;;;;;;25.80;54.23;100995.13;5034193;28;20053;-81
2023/07/14 08:10:56;;;;;;;2.50;2.17;;;;;;;26.27;50.93;100998.22;5036869;28;20038;-82
2023/07/14 08:13:25;;;;;;;3.50;2.47;;;;;;;26.39;51.32;101000.06;5028404;28;20045;-81
2023/07/14 08:15:53;;;;;;;5.65;2.33;;;;;;;27.05;49.44;101002.53;5020805;28;20039;-82
2023/07/14 08:18:22;;;;;;;1.98;1.88;;;;;;;27.37;47.20;101002.84;5020666;28;20479;-84
2023/07/14 08:20:49;;;;;;;3.80;1.77;;;;;;;27.55;46.34;101006.03;5023261;28;20049;-82
2023/07/14 08:23:19;;;;;;;4.70;2.22;;;;;;;27.91;45.01;101016.78;5017386;28;20389;-80
2023/07/14 08:26:23;;;;;;;3.80;1.95;;;;;;;27.87;43.54;101008.09;5039455;28;20034;-80
2023/07/14 08:28:49;;;;;;;;;;;;;;;26.33;45.01;100995.13;5041950;28;20080;-79
2023/07/14 08:31:16;;;;;;;4.53;2.35;;;;;;;25.45;47.54;101003.72;5033353;28;20013;-80
2023/07/14 08:33:43;;;;;;;1.77;1.67;;;;;;;25.70;47.07;101003.81;5032550;28;20033;-83
2023/07/14 08:36:12;;;;;;;1.65;1.42;;;;;;;25.83;45.43;101006.50;5022704;28;20037;-81
2023/07/14 08:38:40;;;;;;;3.17;1.60;;;;;;;26.08;44.64;100995.00;5042634;28;20053;-80
2023/07/14 08:41:20;;;;;;;2.55;1.58;;;;;;;26.87;44.00;100991.28;5036677;28;20147;-80
2023/07/14 08:44:31;;;;;;;1.63;1.52;;;;;;;28.01;40.84;100995.41;5026589;28;20041;-82
2023/07/14 08:47:08;;;;;;;2.40;2.03;;;;;;;28.45;40.50;100992.94;5032867;28;20460;-80
2023/07/14 08:50:00;;;;;;;3.33;1.90;;;;;;;28.79;39.24;100996.50;5029654;28;20033;-80
2023/07/14 08:52:35;;;;;;;2.28;2.03;;;;;;;28.94;39.10;100999.78;5034717;28;20124;-80
2023/07/14 08:55:14;;;;;;;1.75;1.65;;;;;;;29.02;39.48;101000.03;5033250;28;20034;-80
2023/07/14 08:57:49;;;;;;;3.25;1.90;;;;;;;29.26;38.69;101000.81;5025574;28;20040;-80
2023/07/14 09:00:38;;;;;;;3.45;1.77;;;;;;;29.12;38.33;100989.31;5031148;28;20048;-80
2023/07/14 09:03:26;;;;;;;1.75;1.50;;;;;;;29.36;37.40;100991.88;5014013;28;20103;-79
2023/07/14 09:05:57;;;;;;;4.68;1.73;;;;;;;30.25;36.08;100987.13;5026312;28;20049;-80
2023/07/14 09:08:29;;;;;;;1.95;1.50;;;;;;;30.69;34.08;100985.94;5028876;28;20033;-81
2023/07/14 09:11:34;;;;;;;2.00;1.67;;;;;;;30.68;34.28;100988.78;5036697;28;20041;-82
2023/07/14 09:14:20;;;;;;;2.17;1.70;;;;;;;30.23;34.42;100989.09;5039345;28;20037;-82
2023/07/14 09:17:13;;;;;;;2.45;1.25;;;;;;;30.63;33.25;100982.94;5033813;28;20040;-80
2023/07/14 09:20:19;;;;;;;;;;;;;;;31.08;32.75;100977.09;5027420;28;20047;-80
2023/07/14 09:23:26;;;;;;;1.73;1.35;;;;;;;31.21;31.48;100979.53;5024847;28;19928;-83
2023/07/14 09:26:09;;;;;;;2.53;1.75;;;;;;;31.74;30.76;100974.72;5023068;28;20037;-81
2023/07/14 09:28:51;;;;;;;5.22;1.67;;;;;;;31.91;31.12;100975.81;5030812;28;20103;-82
2023/07/14 09:31:37;;;;;;;3.60;1.85;;;;;;;32.00;30.51;100969.53;5020414;28;20049;-81
2023/07/14 09:34:27;;;;;;;4.45;1.83;;;;;;;32.18;30.50;100961.53;5020232;28;20044;-81
2023/07/14 09:36:54;;;;;;;7.05;2.17;;;;;;;30.64;33.22;100961.16;5021271;28;20054;-83
2023/07/14 09:39:38;;;;;;;6.07;2.25;;;;;;;29.68;34.46;100963.16;5021780;28;20053;-81
2023/07/14 09:42:12;;;;;;;2.38;1.45;;;;;;;30.79;33.00;100958.91;5020278;28;20049;-82
2023/07/14 09:44:39;;;;;;;2.28;1.77;;;;;;;31.83;31.55;100952.19;5031136;28;20599;-80
2023/07/14 09:47:07;;;;;;;2.08;1.30;;;;;;;32.73;30.79;100944.47;5026697;28;20034;-80
2023/07/14 09:49:51;;;;;;;2.03;1.83;;;;;;;33.46;28.96;100946.22;5015430;28;20045;-80
2023/07/14 09:52:20;;;;;;;3.22;1.40;;;;;;;33.37;29.08;100952.59;5031552;28;20045;-80
2023/07/14 09:54:59;;;;;;;2.70;1.77;;;;;;;33.40;28.68;100946.88;5032072;28;20034;-80
2023/07/14 09:57:33;;;;;;;2.97;1.48;;;;;;;32.33;30.52;100948.34;5032324;28;20029;-80
2023/07/14 10:00:11;;;;;;;2.63;1.65;;;;;;;31.30;31.95;100948.06;5016527;28;20053;-79
2023/07/14 10:02:37;;;;;;;3.10;1.65;;;;;;;31.20;32.37;100944.50;5032126;28;20042;-79
2023/07/14 10:05:25;;;;;;;2.03;1.90;;;;;;;31.60;31.44;100935.38;5035813;28;20042;-80
2023/07/14 10:07:53;;;;;;;2.33;1.55;;;;;;;30.84;32.66;100935.03;5029462;28;20033;-80
2023/07/14 10:10:26;;;;;;;1.52;1.48;;;;;;;30.30;33.73;100925.47;5033347;28;20037;-80
2023/07/14 10:12:53;;;;;;;2.72;1.70;;;;;;;30.16;33.65;100922.13;5031603;28;20037;-81
2023/07/14 10:15:30;;;;;;;3.15;1.83;;;;;;;28.66;35.67;100914.97;5030458;28;20485;-81
2023/07/14 10:18:07;;;;;;;3.58;1.70;;;;;;;30.03;33.91;100908.00;5032939;28;20068;-81
2023/07/14 10:20:35;;;;;;;2.25;1.33;;;;;;;30.60;33.25;100907.53;5016013;28;20049;-84
2023/07/14 10:23:01;;;;;;;1.48;1.38;;;;;;;30.71;32.56;100907.41;5029636;28;20136;-81
2023/07/14 10:25:31;;;;;;;1.27;1.17;;;;;;;31.56;31.48;100907.75;5015332;28;20042;-79
2023/07/14 10:28:15;;;;;;;2.13;1.45;;;;;;;33.36;28.88;100898.50;5028767;28;20037;-80
2023/07/14 10:31:00;;;;;;;2.63;1.70;;;;;;;34.14;27.74;100894.94;5039828;28;20525;-81
2023/07/14 10:33:38;;;;;;;4.95;1.70;;;;;;;34.89;26.62;100894.22;5019565;28;20091;-80
2023/07/14 10:36:18;;;;;;;5.20;1.98;;;;;;;35.09;26.08;100894.72;5029343;28;20104;-81
2023/07/14 10:38:58;;;;;;;1.85;1.25;;;;;;;34.89;25.89;100896.94;5036107;28;20463;-80
2023/07/14 10:41:26;;;;;;;1.55;1.20;;;;;;;35.25;26.61;100901.19;5033947;28;20049;-80
2023/07/14 10:44:03;;;;;;;3.30;1.42;;;;;;;35.99;24.81;100882.06;5002273;28;20056;-80
2023/07/14 10:46:44;;;;;;;1.10;1.00;;;;;;;34.94;25.77;100890.97;5010996;28;20404;-80
2023/07/14 10:49:20;;;;;;;1.25;1.25;;;;;;;33.47;27.88;100884.69;5033438;28;20052;-82
2023/07/14 10:52:15;;;;;;;1.45;1.35;;;;;;;31.63;29.56;100892.69;5051477;28;20460;-80
2023/07/14 10:54:54;;;;;;;1.58;1.58;;;;;;;29.99;31.92;100875.03;5031913;28;20499;-79
2023/07/14 10:57:37;;;;;;;3.10;1.40;;;;;;;28.73;34.09;100880.31;5021978;28;20044;-80
2023/07/14 11:00:20;;;;;;;2.83;2.20;;;;;;;28.57;34.83;100889.59;5029757;28;20042;-81
2023/07/14 11:02:57;;;;;;;1.75;1.65;;;;;;;28.27;35.08;100879.50;5025381;28;20038;-81
2023/07/14 11:05:27;;;;;;;3.45;1.10;;;;;;;27.91;35.14;100871.50;5040157;28;20364;-84
2023/07/14 11:07:54;;;;;;;3.28;1.90;;;;;;;27.75;35.58;100873.69;5011954;28;20366;-83
2023/07/14 11:10:40;;;;;;;4.43;2.05;;;;;;;28.26;34.90;100864.31;5033842;28;20041;-84
2023/07/14 11:13:32;;;;;;;2.00;1.58;;;;;;;29.10;33.48;100859.22;5034096;28;20350;-80
2023/07/14 11:16:07;;;;;;;1.70;1.40;;;;;;;29.31;33.63;100855.75;5012164;28;20050;-82
2023/07/14 11:18:55;;;;;;;3.58;2.08;;;;;;;28.46;34.81;100857.31;5015085;28;20038;-81
2023/07/14 11:21:47;;;;;;;2.63;1.60;;;;;;;28.94;34.80;100854.25;5039253;28;20041;-82
2023/07/14 11:24:21;;;;;;;2.58;1.52;;;;;;;31.84;30.48;100842.91;5031867;28;20164;-80
2023/07/14 11:27:28;;;;;;;1.58;1.40;;;;;;;33.14;28.74;100841.84;5045352;28;20040;-81
2023/07/14 11:30:03;;;;;;;2.33;1.58;;;;;;;34.20;27.04;100841.84;5018766;28;20056;-80
2023/07/14 11:32:57;;;;;;;1.90;1.55;;;;;;;34.55;25.73;100835.34;5026195;28;20433;-80
2023/07/14 11:35:56;;;;;;;2.13;1.52;;;;;;;35.32;24.76;100827.88;5043888;28;20045;-79
2023/07/14 11:38:35;;;;;;;2.67;1.85;;;;;;;36.53;24.94;100820.50;5017211;28;20049;-80
2023/07/14 11:41:02;;;;;;;2.15;2.00;;;;;;;36.82;24.32;100821.66;5035721;28;20041;-80
2023/07/14 11:43:30;;;;;;;1.48;1.48;;;;;;;38.27;23.00;100823.28;5029662;28;20052;-81
2023/07/14 11:46:05;;;;;;;2.72;1.63;;;;;;;38.26;21.66;100818.00;5032117;28;20033;-81